createdAt,value
2023-04-09T00:01:38.721Z,38.17
2023-04-09T00:04:06.775Z,31.92
2023-04-09T00:06:34.768Z,30.40
2023-04-09T00:09:02.777Z,28.95
2023-04-09T00:11:32.137Z,30.83
2023-04-09T00:14:00.415Z,32.08
2023-04-09T00:16:28.494Z,36.65
2023-04-09T00:18:56.816Z,24.20
2023-04-09T00:21:24.796Z,34.50
2023-04-09T00:23:53.079Z,29.73
2023-04-09T00:26:21.381Z,26.08
2023-04-09T00:28:51.248Z,31.00
2023-04-09T00:31:20.733Z,42.25
2023-04-09T00:33:49.108Z,32.75
2023-04-09T00:36:17.127Z,31.75
2023-04-09T00:38:45.399Z,26.35
2023-04-09T00:41:13.367Z,39.55
2023-04-09T00:43:41.453Z,40.78
2023-04-09T00:46:10.849Z,37.78
2023-04-09T00:48:38.834Z,34.90
2023-04-09T00:51:06.818Z,28.10
2023-04-09T00:53:35.020Z,25.20
2023-04-09T00:56:04.233Z,28.98
2023-04-09T00:58:32.229Z,39.33
2023-04-09T01:01:00.394Z,33.60
2023-04-09T01:03:30.414Z,31.98
2023-04-09T01:06:07.097Z,41.65
2023-04-09T01:08:49.586Z,37.63
2023-04-09T01:11:31.345Z,35.38
2023-04-09T01:14:06.085Z,28.88
2023-04-09T01:16:37.853Z,27.17
2023-04-09T01:19:16.548Z,27.63
2023-04-09T01:21:46.386Z,30.15
2023-04-09T01:24:26.102Z,36.40
2023-04-09T01:27:03.265Z,34.72
2023-04-09T01:29:48.229Z,33.15
2023-04-09T01:32:19.687Z,40.15
2023-04-09T01:34:49.241Z,31.05
2023-04-09T01:37:18.127Z,31.75
2023-04-09T01:39:46.965Z,26.75
2023-04-09T01:42:17.028Z,26.55
2023-04-09T01:44:47.689Z,32.03
2023-04-09T01:47:15.752Z,30.02
2023-04-09T01:49:45.338Z,36.70
2023-04-09T01:52:13.696Z,29.92
2023-04-09T01:54:41.817Z,35.53
2023-04-09T01:57:09.778Z,28.90
2023-04-09T01:59:37.763Z,39.50
2023-04-09T02:02:11.650Z,39.70
2023-04-09T02:04:42.675Z,28.35
2023-04-09T02:07:16.227Z,29.23
2023-04-09T02:09:47.035Z,35.97
2023-04-09T02:12:19.145Z,34.55
2023-04-09T02:14:48.126Z,27.98
2023-04-09T02:17:17.466Z,37.75
2023-04-09T02:19:47.757Z,43.42
2023-04-09T02:22:16.891Z,30.58
2023-04-09T02:24:44.921Z,29.10
2023-04-09T02:27:12.883Z,32.53
2023-04-09T02:29:40.912Z,32.15
2023-04-09T02:32:08.892Z,35.05
2023-04-09T02:34:38.277Z,29.52
2023-04-09T02:37:06.264Z,23.13
2023-04-09T02:39:34.371Z,24.35
2023-04-09T02:42:02.348Z,20.35
2023-04-09T02:44:30.348Z,16.08
2023-04-09T02:46:58.824Z,21.15
2023-04-09T02:49:26.869Z,16.48
2023-04-09T02:51:56.182Z,19.67
2023-04-09T02:54:24.150Z,17.60
2023-04-09T02:56:52.417Z,14.20
2023-04-09T02:59:20.415Z,19.15
2023-04-09T03:01:48.505Z,17.35
2023-04-09T03:04:16.658Z,16.23
2023-04-09T03:06:44.655Z,20.33
2023-04-09T03:09:13.995Z,19.00
2023-04-09T03:11:41.966Z,21.90
2023-04-09T03:14:10.168Z,18.40
2023-04-09T03:16:50.564Z,18.88
2023-04-09T03:19:18.515Z,24.05
2023-04-09T03:21:49.186Z,18.80
2023-04-09T03:24:19.840Z,17.63
2023-04-09T03:26:47.994Z,17.30
2023-04-09T03:29:17.086Z,20.80
2023-04-09T03:31:45.727Z,23.35
2023-04-09T03:34:13.870Z,22.92
2023-04-09T03:36:41.866Z,22.77
2023-04-09T03:39:20.999Z,22.15
2023-04-09T03:41:49.037Z,21.38
2023-04-09T03:44:18.732Z,19.42
2023-04-09T03:47:00.393Z,30.13
2023-04-09T03:49:29.681Z,21.65
2023-04-09T03:52:04.350Z,27.65
2023-04-09T03:54:39.553Z,15.48
2023-04-09T03:57:13.812Z,17.85
2023-04-09T03:59:45.227Z,15.95
2023-04-09T04:02:15.153Z,13.30
2023-04-09T04:04:48.128Z,13.88
2023-04-09T04:07:16.354Z,15.35
2023-04-09T04:09:57.101Z,14.48
2023-04-09T04:12:25.299Z,12.65
2023-04-09T04:15:04.116Z,15.23
2023-04-09T04:17:39.913Z,14.90
2023-04-09T04:20:15.492Z,16.23
2023-04-09T04:22:55.610Z,16.95
2023-04-09T04:25:26.681Z,14.88
2023-04-09T04:27:56.239Z,14.73
2023-04-09T04:30:29.702Z,33.97
2023-04-09T04:33:04.643Z,21.02
2023-04-09T04:35:40.776Z,18.05
2023-04-09T04:38:14.319Z,15.98
2023-04-09T04:40:43.681Z,17.60
2023-04-09T04:43:11.733Z,14.77
2023-04-09T04:45:40.082Z,18.40
2023-04-09T04:48:12.369Z,15.07
2023-04-09T04:50:40.424Z,18.27
2023-04-09T04:53:10.523Z,18.23
2023-04-09T04:55:47.795Z,18.60
2023-04-09T04:58:19.065Z,16.95
2023-04-09T05:00:51.970Z,15.90
2023-04-09T05:03:20.174Z,16.08
2023-04-09T05:06:06.927Z,20.10
2023-04-09T05:08:43.467Z,17.80
2023-04-09T05:11:15.168Z,19.38
2023-04-09T05:13:44.413Z,13.70
2023-04-09T05:16:17.888Z,13.35
2023-04-09T05:18:49.726Z,11.18
2023-04-09T05:21:17.921Z,11.63
2023-04-09T05:23:47.211Z,15.15
2023-04-09T05:26:17.652Z,9.30
2023-04-09T05:28:52.509Z,12.82
2023-04-09T05:31:22.728Z,12.07
2023-04-09T05:33:57.635Z,14.77
2023-04-09T05:36:34.968Z,13.85
2023-04-09T05:39:03.554Z,14.75
2023-04-09T05:41:33.642Z,17.95
2023-04-09T05:44:28.334Z,11.13
2023-04-09T05:47:03.225Z,17.50
2023-04-09T05:49:37.855Z,17.65
2023-04-09T05:52:11.669Z,16.38
2023-04-09T05:54:39.738Z,13.15
2023-04-09T05:57:11.533Z,26.73
2023-04-09T05:59:42.485Z,14.05
2023-04-09T06:02:10.650Z,12.63
2023-04-09T06:04:38.706Z,13.82
2023-04-09T06:07:06.725Z,16.30
2023-04-09T06:09:34.667Z,18.85
2023-04-09T06:12:04.076Z,20.10
2023-04-09T06:14:33.767Z,25.85
2023-04-09T06:17:01.782Z,23.33
2023-04-09T06:19:29.805Z,29.20
2023-04-09T06:21:57.764Z,31.13
2023-04-09T06:24:25.760Z,32.67
2023-04-09T06:26:53.723Z,29.88
2023-04-09T06:29:23.820Z,27.55
2023-04-09T06:31:54.051Z,27.20
2023-04-09T06:34:22.220Z,21.77
2023-04-09T06:36:50.162Z,26.20
2023-04-09T06:39:18.107Z,24.58
2023-04-09T06:41:46.460Z,23.73
2023-04-09T06:44:26.083Z,25.15
2023-04-09T06:46:55.385Z,27.90
2023-04-09T06:49:23.413Z,49.08
2023-04-09T06:51:53.458Z,33.33
2023-04-09T06:54:21.658Z,28.75
2023-04-09T06:56:51.834Z,32.05
2023-04-09T06:59:19.779Z,29.27
2023-04-09T07:01:48.527Z,34.95
2023-04-09T07:04:18.339Z,30.08
2023-04-09T07:06:46.905Z,31.92
2023-04-09T07:09:14.861Z,34.60
2023-04-09T07:11:43.284Z,28.17
2023-04-09T07:14:11.315Z,22.97
2023-04-09T07:16:39.414Z,21.93
2023-04-09T07:19:07.542Z,17.40
2023-04-09T07:21:36.935Z,18.60
2023-04-09T07:24:05.727Z,18.17
2023-04-09T07:26:33.922Z,15.43
2023-04-09T07:29:03.723Z,16.47
2023-04-09T07:31:33.338Z,21.73
2023-04-09T07:34:02.528Z,23.77
2023-04-09T07:36:31.824Z,18.40
2023-04-09T07:39:01.231Z,16.63
2023-04-09T07:41:29.220Z,18.90
2023-04-09T07:43:57.337Z,15.20
2023-04-09T07:46:25.343Z,20.40
2023-04-09T07:48:53.439Z,17.90
2023-04-09T07:51:21.567Z,18.03
2023-04-09T07:53:49.605Z,15.27
2023-04-09T07:56:18.869Z,18.60
2023-04-09T07:58:49.085Z,14.53
2023-04-09T08:01:17.277Z,12.73
2023-04-09T08:03:45.477Z,15.63
2023-04-09T08:06:13.596Z,18.63
2023-04-09T08:08:41.791Z,16.17
2023-04-09T08:11:09.876Z,12.40
2023-04-09T08:13:39.283Z,13.33
2023-04-09T08:16:07.292Z,13.87
2023-04-09T08:18:35.737Z,14.30
2023-04-09T08:21:06.026Z,13.40
2023-04-09T08:23:33.972Z,11.30
2023-04-09T08:26:02.028Z,12.33
2023-04-09T08:28:30.027Z,12.60
2023-04-09T08:30:59.542Z,13.43
2023-04-09T08:33:27.516Z,14.13
2023-04-09T08:35:55.480Z,14.03
2023-04-09T08:38:23.496Z,11.17
2023-04-09T08:40:51.688Z,16.50
2023-04-09T08:43:23.674Z,14.97
2023-04-09T08:45:53.803Z,12.73
2023-04-09T08:48:23.710Z,12.83
2023-04-09T08:50:51.782Z,16.10
2023-04-09T08:53:22.282Z,10.67
2023-04-09T08:55:50.447Z,14.70
2023-04-09T08:58:18.490Z,16.40
2023-04-09T09:00:46.632Z,16.10
2023-04-09T09:03:14.661Z,12.50
2023-04-09T09:05:45.712Z,16.50
2023-04-09T09:08:23.469Z,20.87
2023-04-09T09:10:51.438Z,15.00
2023-04-09T09:13:22.418Z,11.90
2023-04-09T09:15:55.107Z,12.43
2023-04-09T09:18:38.111Z,15.53
2023-04-09T09:21:13.356Z,12.87
2023-04-09T09:23:42.417Z,14.47
2023-04-09T09:26:14.418Z,14.17
2023-04-09T09:28:42.675Z,12.87
2023-04-09T09:31:11.056Z,15.30
2023-04-09T09:33:39.441Z,12.00
2023-04-09T09:36:09.445Z,11.90
2023-04-09T09:38:54.883Z,14.33
2023-04-09T09:41:23.402Z,14.50
2023-04-09T09:43:51.965Z,11.60
2023-04-09T09:46:21.675Z,13.23
2023-04-09T09:48:49.857Z,13.00
2023-04-09T09:51:18.633Z,12.83
2023-04-09T09:53:49.731Z,12.80
2023-04-09T09:56:22.314Z,13.33
2023-04-09T09:58:54.310Z,13.07
2023-04-09T10:01:25.466Z,14.57
2023-04-09T10:03:54.206Z,12.03
2023-04-09T10:06:23.434Z,14.30
2023-04-09T10:08:52.611Z,11.43
2023-04-09T10:11:23.539Z,11.80
2023-04-09T10:13:54.763Z,13.60
2023-04-09T10:16:24.077Z,14.87
2023-04-09T10:18:52.590Z,16.97
2023-04-09T10:21:29.337Z,13.90
2023-04-09T10:23:58.253Z,14.50
2023-04-09T10:26:30.787Z,14.63
2023-04-09T10:29:08.101Z,13.27
2023-04-09T10:32:03.980Z,12.30
2023-04-09T10:34:36.594Z,14.20
2023-04-09T10:37:05.069Z,13.93
2023-04-09T10:39:34.513Z,14.17
2023-04-09T10:42:12.509Z,14.40
2023-04-09T10:44:42.804Z,13.70
2023-04-09T10:47:11.698Z,16.50
2023-04-09T10:49:40.662Z,16.70
2023-04-09T10:52:11.811Z,16.20
2023-04-09T10:54:45.891Z,16.77
2023-04-09T10:57:22.575Z,12.70
2023-04-09T10:59:52.256Z,15.20
2023-04-09T11:03:09.464Z,17.93
2023-04-09T11:05:39.103Z,14.67
2023-04-09T11:08:10.644Z,16.23
2023-04-09T11:10:39.531Z,19.63
2023-04-09T11:13:12.510Z,15.50
2023-04-09T11:15:40.874Z,16.30
2023-04-09T11:18:09.996Z,16.80
2023-04-09T11:20:39.562Z,18.03
2023-04-09T11:23:07.559Z,17.83
2023-04-09T11:25:35.957Z,18.67
2023-04-09T11:28:06.025Z,15.37
2023-04-09T11:30:36.078Z,15.37
2023-04-09T11:33:04.715Z,16.77
2023-04-09T11:35:35.659Z,16.00
2023-04-09T11:38:07.956Z,14.90
2023-04-09T11:40:36.087Z,17.20
2023-04-09T11:43:04.197Z,14.27
2023-04-09T11:45:33.320Z,13.00
2023-04-09T11:48:03.634Z,16.20
2023-04-09T11:50:32.819Z,16.07
2023-04-09T11:53:00.950Z,14.00
2023-04-09T11:55:30.681Z,16.10
2023-04-09T11:58:01.056Z,16.80
2023-04-09T12:00:29.902Z,16.13
2023-04-09T12:03:04.232Z,15.77
2023-04-09T12:05:34.265Z,14.93
2023-04-09T12:08:04.976Z,14.77
2023-04-09T12:10:35.351Z,12.90
2023-04-09T12:13:04.989Z,15.37
2023-04-09T12:15:34.918Z,12.43
2023-04-09T12:18:04.641Z,17.77
2023-04-09T12:20:35.707Z,18.23
2023-04-09T12:23:05.796Z,11.93
2023-04-09T12:25:36.704Z,12.30
2023-04-09T12:28:05.706Z,16.10
2023-04-09T12:30:34.208Z,11.80
2023-04-09T12:33:04.329Z,10.83
2023-04-09T12:35:32.600Z,11.50
2023-04-09T12:38:01.102Z,10.87
2023-04-09T12:40:29.159Z,11.83
2023-04-09T12:42:57.540Z,15.70
2023-04-09T12:45:26.051Z,18.80
2023-04-09T12:47:54.146Z,12.40
2023-04-09T12:50:23.709Z,12.80
2023-04-09T12:52:51.905Z,14.87
2023-04-09T12:55:19.906Z,11.33
2023-04-09T12:57:51.284Z,13.90
2023-04-09T13:00:19.436Z,13.63
2023-04-09T13:02:56.231Z,12.00
2023-04-09T13:05:26.589Z,14.57
2023-04-09T13:07:54.556Z,13.53
2023-04-09T13:10:22.559Z,14.57
2023-04-09T13:12:51.432Z,9.70
2023-04-09T13:15:19.450Z,13.00
2023-04-09T13:17:47.428Z,18.87
2023-04-09T13:20:15.935Z,17.27
2023-04-09T13:22:48.775Z,11.77
2023-04-09T13:25:16.914Z,13.57
2023-04-09T13:27:45.025Z,11.13
2023-04-09T13:30:13.266Z,13.73
2023-04-09T13:32:41.409Z,13.80
2023-04-09T13:35:10.897Z,14.60
2023-04-09T13:37:38.950Z,14.20
2023-04-09T13:40:09.972Z,13.77
2023-04-09T13:42:38.530Z,17.03
2023-04-09T13:45:07.736Z,22.20
2023-04-09T13:47:35.947Z,12.93
2023-04-09T13:50:04.443Z,12.93
2023-04-09T13:52:33.347Z,14.27
2023-04-09T13:55:01.638Z,12.73
2023-04-09T13:57:30.945Z,13.63
2023-04-09T14:00:01.983Z,13.20
2023-04-09T14:02:33.301Z,14.90
2023-04-09T14:05:02.504Z,12.97
2023-04-09T14:07:30.881Z,12.60
2023-04-09T14:09:59.040Z,10.10
2023-04-09T14:12:27.070Z,13.43
2023-04-09T14:14:56.563Z,12.60
2023-04-09T14:17:24.556Z,8.30
2023-04-09T14:19:52.805Z,16.33
2023-04-09T14:22:20.970Z,10.40
2023-04-09T14:24:49.120Z,15.17
2023-04-09T14:27:17.215Z,15.53
2023-04-09T14:29:45.143Z,14.50
2023-04-09T14:32:14.487Z,15.67
2023-04-09T14:34:42.765Z,12.70
2023-04-09T14:37:10.919Z,12.47
2023-04-09T14:39:38.870Z,14.60
2023-04-09T14:42:07.086Z,14.60
2023-04-09T14:44:35.060Z,14.00
2023-04-09T14:47:03.407Z,16.23
2023-04-09T14:49:33.108Z,15.90
2023-04-09T14:52:01.396Z,11.90
2023-04-09T14:54:31.368Z,17.43
2023-04-09T14:56:59.774Z,15.17
2023-04-09T14:59:28.188Z,18.53
2023-04-09T15:01:56.457Z,13.20
2023-04-09T15:04:24.573Z,14.10
2023-04-09T15:06:54.228Z,14.80
2023-04-09T15:09:22.466Z,11.03
2023-04-09T15:11:50.656Z,14.40
2023-04-09T15:14:20.360Z,11.70
2023-04-09T15:16:48.423Z,13.70
2023-04-09T15:19:16.675Z,17.60
2023-04-09T15:21:44.813Z,11.17
2023-04-09T15:24:14.181Z,10.43
2023-04-09T15:26:42.134Z,12.57
2023-04-09T15:29:11.243Z,15.80
2023-04-09T15:31:41.302Z,15.60
2023-04-09T15:34:09.754Z,13.43
2023-04-09T15:36:37.866Z,13.13
2023-04-09T15:39:06.516Z,11.70
2023-04-09T15:41:36.040Z,10.27
2023-04-09T15:44:04.105Z,14.20
2023-04-09T15:46:32.209Z,14.63
2023-04-09T15:49:00.453Z,13.60
2023-04-09T15:51:28.697Z,15.97
2023-04-09T15:53:56.693Z,14.40
2023-04-09T15:56:24.645Z,10.67
2023-04-09T15:58:54.278Z,14.10
2023-04-09T16:01:22.649Z,15.50
2023-04-09T16:03:52.269Z,13.87
2023-04-09T16:06:21.141Z,13.00
2023-04-09T16:08:49.150Z,17.20
2023-04-09T16:11:17.235Z,12.57
2023-04-09T16:13:45.234Z,14.50
2023-04-09T16:16:14.678Z,12.83
2023-04-09T16:18:42.678Z,11.40
2023-04-09T16:21:10.684Z,12.83
2023-04-09T16:23:39.921Z,14.80
2023-04-09T16:26:08.175Z,15.00
2023-04-09T16:28:36.268Z,13.23
2023-04-09T16:31:04.254Z,16.50
2023-04-09T16:33:33.601Z,12.53
2023-04-09T16:36:01.742Z,13.17
2023-04-09T16:38:31.218Z,13.80
2023-04-09T16:40:59.524Z,15.97
2023-04-09T16:43:27.749Z,17.60
2023-04-09T16:45:55.705Z,25.00
2023-04-09T16:48:24.002Z,20.47
2023-04-09T16:50:53.252Z,17.57
2023-04-09T16:53:21.429Z,18.90
2023-04-09T16:55:50.064Z,16.60
2023-04-09T16:58:18.081Z,16.90
2023-04-09T17:00:47.400Z,17.67
2023-04-09T17:03:16.764Z,20.70
2023-04-09T17:05:49.259Z,15.17
2023-04-09T17:08:21.544Z,14.07
2023-04-09T17:10:49.541Z,23.50
2023-04-09T17:13:17.857Z,16.70
2023-04-09T17:15:46.031Z,18.97
2023-04-09T17:18:14.102Z,16.27
2023-04-09T17:20:42.105Z,22.93
2023-04-09T17:23:10.197Z,17.80
2023-04-09T17:25:39.959Z,28.77
2023-04-09T17:28:07.996Z,19.07
2023-04-09T17:30:36.444Z,24.80
2023-04-09T17:33:04.632Z,17.07
2023-04-09T17:35:32.803Z,19.60
2023-04-09T17:38:01.298Z,24.27
2023-04-09T17:40:29.645Z,16.33
2023-04-09T17:42:59.595Z,22.97
2023-04-09T17:45:27.802Z,21.03
2023-04-09T17:47:55.837Z,15.37
2023-04-09T17:50:23.978Z,39.07
2023-04-09T17:52:51.953Z,20.47
2023-04-09T17:55:19.923Z,26.13
2023-04-09T17:57:48.058Z,19.93
2023-04-09T18:00:17.779Z,16.83
2023-04-09T18:02:49.018Z,15.40
2023-04-09T18:05:17.462Z,19.83
2023-04-09T18:07:45.862Z,16.23
2023-04-09T18:10:13.746Z,22.47
2023-04-09T18:12:41.960Z,38.50
2023-04-09T18:15:10.987Z,25.27
2023-04-09T18:17:40.415Z,30.77
2023-04-09T18:20:09.136Z,27.83
2023-04-09T18:22:38.217Z,25.77
2023-04-09T18:25:07.529Z,24.83
2023-04-09T18:27:35.670Z,20.70
2023-04-09T18:30:04.191Z,18.40
2023-04-09T18:32:32.402Z,17.50
2023-04-09T18:35:01.781Z,19.60
2023-04-09T18:37:29.991Z,25.87
2023-04-09T18:39:59.198Z,24.70
2023-04-09T18:42:28.066Z,22.07
2023-04-09T18:44:56.402Z,19.57
2023-04-09T18:47:25.986Z,15.77
2023-04-09T18:49:54.060Z,18.00
2023-04-09T18:52:23.617Z,15.67
2023-04-09T18:54:51.554Z,18.23
2023-04-09T18:57:20.507Z,25.60
2023-04-09T18:59:48.660Z,17.50
2023-04-09T19:02:16.746Z,18.50
2023-04-09T19:04:45.189Z,15.63
2023-04-09T19:07:13.433Z,16.80
2023-04-09T19:09:44.533Z,15.03
2023-04-09T19:12:12.800Z,18.27
2023-04-09T19:14:41.193Z,17.57
2023-04-09T19:17:09.391Z,20.67
2023-04-09T19:19:37.324Z,17.47
2023-04-09T19:22:05.244Z,22.27
2023-04-09T19:24:33.243Z,21.13
2023-04-09T19:27:08.042Z,19.83
2023-04-09T19:29:36.115Z,19.83
2023-04-09T19:32:04.711Z,21.42
2023-04-09T19:34:33.125Z,24.50
2023-04-09T19:37:01.100Z,24.92
2023-04-09T19:39:29.068Z,20.92
2023-04-09T19:41:57.312Z,20.08
2023-04-09T19:44:26.668Z,22.05
2023-04-09T19:46:54.816Z,20.02
2023-04-09T19:49:22.873Z,15.38
2023-04-09T19:51:50.976Z,23.95
2023-04-09T19:54:18.951Z,22.55
2023-04-09T19:56:46.955Z,20.33
2023-04-09T19:59:14.947Z,17.35
2023-04-09T20:01:44.429Z,14.45
2023-04-09T20:04:13.030Z,11.82
2023-04-09T20:06:41.301Z,16.45
2023-04-09T20:09:12.347Z,16.52
2023-04-09T20:11:40.496Z,16.35
2023-04-09T20:14:08.530Z,14.10
2023-04-09T20:16:36.731Z,15.65
2023-04-09T20:19:06.724Z,15.52
2023-04-09T20:21:34.746Z,14.77
2023-04-09T20:24:03.763Z,12.85
2023-04-09T20:26:32.128Z,18.05
2023-04-09T20:29:00.362Z,11.77
2023-04-09T20:31:28.604Z,15.95
2023-04-09T20:33:56.715Z,12.88
2023-04-09T20:36:26.579Z,14.38
2023-04-09T20:38:55.245Z,11.70
2023-04-09T20:41:23.673Z,12.98
2023-04-09T20:43:51.901Z,13.98
2023-04-09T20:46:20.244Z,10.85
2023-04-09T20:48:48.310Z,11.52
2023-04-09T20:51:16.284Z,13.30
2023-04-09T20:53:45.604Z,14.43
2023-04-09T20:56:13.947Z,13.65
2023-04-09T20:58:41.973Z,16.50
2023-04-09T21:01:10.682Z,18.15
2023-04-09T21:03:40.026Z,14.57
2023-04-09T21:06:09.369Z,12.32
2023-04-09T21:08:38.486Z,12.88
2023-04-09T21:11:08.117Z,12.68
2023-04-09T21:13:51.123Z,14.45
2023-04-09T21:16:22.885Z,9.60
2023-04-09T21:18:51.425Z,9.75
2023-04-09T21:21:19.694Z,14.43
2023-04-09T21:23:47.736Z,11.18
2023-04-09T21:26:17.219Z,12.15
2023-04-09T21:28:47.274Z,8.98
2023-04-09T21:31:15.957Z,12.90
2023-04-09T21:33:43.972Z,12.65
2023-04-09T21:36:12.020Z,17.70
2023-04-09T21:38:40.012Z,13.27
2023-04-09T21:41:08.593Z,7.72
2023-04-09T21:43:38.455Z,12.98
2023-04-09T21:46:06.792Z,9.57
2023-04-09T21:48:34.726Z,11.82
2023-04-09T21:51:02.982Z,10.68
2023-04-09T21:53:32.100Z,14.80
2023-04-09T21:56:00.378Z,9.32
2023-04-09T21:58:31.813Z,19.58
2023-04-09T22:01:01.426Z,8.93
2023-04-09T22:03:29.702Z,12.88
2023-04-09T22:05:57.984Z,12.57
2023-04-09T22:08:26.103Z,9.88
2023-04-09T22:10:54.161Z,10.00
2023-04-09T22:13:22.319Z,8.32
2023-04-09T22:15:50.492Z,12.75
2023-04-09T22:18:19.867Z,9.35
2023-04-09T22:20:47.930Z,10.85
2023-04-09T22:23:16.074Z,10.70
2023-04-09T22:25:43.992Z,12.20
2023-04-09T22:28:12.054Z,11.25
2023-04-09T22:30:40.940Z,12.48
2023-04-09T22:33:08.893Z,11.60
2023-04-09T22:35:38.610Z,11.57
2023-04-09T22:38:07.093Z,10.05
2023-04-09T22:40:35.473Z,10.98
2023-04-09T22:43:03.719Z,11.93
2023-04-09T22:45:32.276Z,13.27
2023-04-09T22:48:00.371Z,10.13
2023-04-09T22:50:28.950Z,7.40
2023-04-09T22:52:58.576Z,10.85
2023-04-09T22:55:27.352Z,10.80
2023-04-09T22:57:56.382Z,12.20
2023-04-09T23:00:24.349Z,13.95
2023-04-09T23:02:52.595Z,13.43
2023-04-09T23:05:20.707Z,15.15
2023-04-09T23:07:48.740Z,9.68
2023-04-09T23:10:18.434Z,16.00
2023-04-09T23:12:46.557Z,11.55
2023-04-09T23:15:14.550Z,10.52
2023-04-09T23:17:42.614Z,11.25
2023-04-09T23:20:14.609Z,17.25
2023-04-09T23:22:42.908Z,9.07
2023-04-09T23:25:11.162Z,11.93
2023-04-09T23:27:40.580Z,13.52
2023-04-09T23:30:10.159Z,9.77
2023-04-09T23:32:38.437Z,10.60
2023-04-09T23:35:07.152Z,11.73
2023-04-09T23:37:35.082Z,14.35
2023-04-09T23:40:03.516Z,10.50
2023-04-09T23:42:33.893Z,10.10
2023-04-09T23:45:04.885Z,10.05
2023-04-09T23:47:33.960Z,9.48
2023-04-09T23:50:04.725Z,12.88
2023-04-09T23:52:32.999Z,7.40
2023-04-09T23:55:00.975Z,8.90
2023-04-09T23:57:29.001Z,8.43
2023-04-09T23:59:57.439Z,11.77
